createdAt,value
2022-08-09T00:00:29.573Z,99668.40
2022-08-09T00:04:05.903Z,99668.20
2022-08-09T00:06:18.917Z,99673.00
2022-08-09T00:08:58.966Z,99663.40
2022-08-09T00:12:03.015Z,99663.00
2022-08-09T00:14:38.215Z,99666.60
2022-08-09T00:18:05.659Z,99665.00
2022-08-09T00:20:13.882Z,99665.20
2022-08-09T00:22:51.181Z,99665.80
2022-08-09T00:25:32.721Z,99667.40
2022-08-09T00:28:09.500Z,99672.40
2022-08-09T00:30:46.881Z,99668.40
2022-08-09T00:33:32.702Z,99672.00
2022-08-09T00:36:20.059Z,99664.60
2022-08-09T00:38:56.548Z,99672.00
2022-08-09T00:44:16.200Z,99669.00
2022-08-09T00:44:28.672Z,99671.60
2022-08-09T00:47:05.878Z,99673.60
2022-08-09T00:49:42.253Z,99669.60
2022-08-09T00:52:20.562Z,99673.40
2022-08-09T00:54:56.862Z,99672.60
2022-08-09T00:57:34.300Z,99669.60
2022-08-09T01:00:22.049Z,99671.80
2022-08-09T01:03:14.557Z,99672.60
2022-08-09T01:06:17.733Z,99676.80
2022-08-09T01:09:13.107Z,99675.60
2022-08-09T01:12:04.478Z,99677.00
2022-08-09T01:14:54.289Z,99681.60
2022-08-09T01:17:41.788Z,99682.40
2022-08-09T01:20:36.140Z,99681.00
2022-08-09T01:24:03.596Z,99684.60
2022-08-09T01:26:57.720Z,99684.80
2022-08-09T01:29:55.527Z,99684.80
2022-08-09T01:32:37.895Z,99688.20
2022-08-09T01:35:37.213Z,99688.40
2022-08-09T01:38:23.396Z,99681.60
2022-08-09T01:41:14.890Z,99686.00
2022-08-09T01:43:56.916Z,99686.40
2022-08-09T01:46:37.448Z,99685.60
2022-08-09T01:49:18.422Z,99689.20
2022-08-09T01:52:07.557Z,99690.60
2022-08-09T01:54:50.044Z,99691.00
2022-08-09T01:57:40.204Z,99687.40
2022-08-09T02:00:35.551Z,99688.00
2022-08-09T02:03:14.331Z,99687.00
2022-08-09T02:06:03.625Z,99689.40
2022-08-09T02:08:58.731Z,99684.20
2022-08-09T02:11:42.507Z,99682.60
2022-08-09T02:14:25.512Z,99683.40
2022-08-09T02:17:15.175Z,99682.40
2022-08-09T02:20:02.056Z,99683.20
2022-08-09T02:22:45.697Z,99684.80
2022-08-09T02:25:28.559Z,99687.60
2022-08-09T02:28:11.748Z,99688.60
2022-08-09T02:31:02.533Z,99692.20
2022-08-09T02:34:07.162Z,99689.60
2022-08-09T02:36:47.698Z,99685.80
2022-08-09T02:39:42.016Z,99686.20
2022-08-09T02:42:27.786Z,99684.00
2022-08-09T02:45:13.070Z,99686.80
2022-08-09T02:47:59.124Z,99685.40
2022-08-09T02:50:43.656Z,99690.00
2022-08-09T02:53:28.900Z,99688.20
2022-08-09T02:56:08.724Z,99692.40
2022-08-09T02:58:47.697Z,99693.80
2022-08-09T03:01:29.312Z,99693.60
2022-08-09T03:04:20.615Z,99696.00
2022-08-09T03:07:14.019Z,99699.40
2022-08-09T03:09:54.164Z,99703.60
2022-08-09T03:12:34.538Z,99705.80
2022-08-09T03:15:16.693Z,99708.00
2022-08-09T03:17:57.890Z,99710.60
2022-08-09T03:20:36.877Z,99712.80
2022-08-09T03:23:14.977Z,99711.80
2022-08-09T03:26:04.688Z,99712.80
2022-08-09T03:28:43.646Z,99715.20
2022-08-09T03:31:21.379Z,99719.20
2022-08-09T03:34:03.090Z,99714.60
2022-08-09T03:36:40.268Z,99716.20
2022-08-09T03:39:37.551Z,99711.60
2022-08-09T03:42:14.158Z,99708.80
2022-08-09T03:44:55.309Z,99708.40
2022-08-09T03:47:40.083Z,99709.80
2022-08-09T03:50:28.087Z,99705.80
2022-08-09T03:53:11.753Z,99706.00
2022-08-09T03:55:48.910Z,99708.40
2022-08-09T03:58:25.704Z,99708.20
2022-08-09T04:01:02.419Z,99711.00
2022-08-09T04:04:01.455Z,99716.00
2022-08-09T04:06:38.694Z,99709.40
2022-08-09T04:09:48.075Z,99711.40
2022-08-09T04:12:51.137Z,99716.40
2022-08-09T04:15:42.544Z,99712.80
2022-08-09T04:18:25.274Z,99720.20
2022-08-09T04:21:01.437Z,99718.20
2022-08-09T04:23:39.912Z,99720.20
2022-08-09T04:26:15.991Z,99720.40
2022-08-09T04:28:55.031Z,99720.40
2022-08-09T04:31:37.745Z,99726.40
2022-08-09T04:34:31.840Z,99719.40
2022-08-09T04:37:08.381Z,99727.00
2022-08-09T04:39:44.540Z,99725.80
2022-08-09T04:42:29.765Z,99723.40
2022-08-09T04:45:07.643Z,99726.00
2022-08-09T04:47:59.138Z,99726.20
2022-08-09T04:50:38.403Z,99724.60
2022-08-09T04:53:14.608Z,99730.80
2022-08-09T04:55:58.891Z,99731.40
2022-08-09T04:58:36.116Z,99727.80
2022-08-09T05:01:16.103Z,99733.00
2022-08-09T05:03:56.872Z,99734.80
2022-08-09T05:06:36.033Z,99732.80
2022-08-09T05:09:12.447Z,99740.20
2022-08-09T05:11:49.042Z,99736.20
2022-08-09T05:14:26.979Z,99740.20
2022-08-09T05:17:03.354Z,99741.60
2022-08-09T05:19:57.065Z,99746.60
2022-08-09T05:23:56.742Z,99744.40
2022-08-09T05:25:32.339Z,99747.60
2022-08-09T05:28:10.091Z,99748.60
2022-08-09T05:30:47.966Z,99746.60
2022-08-09T05:33:26.476Z,99747.60
2022-08-09T05:36:11.028Z,99747.40
2022-08-09T05:38:51.271Z,99749.80
2022-08-09T05:41:27.536Z,99746.20
2022-08-09T05:44:03.809Z,99747.80
2022-08-09T05:46:41.559Z,99749.20
2022-08-09T05:50:10.975Z,99756.00
2022-08-09T05:52:13.840Z,99764.40
2022-08-09T05:54:51.613Z,99766.00
2022-08-09T05:57:55.424Z,99762.80
2022-08-09T06:00:24.478Z,99768.20
2022-08-09T06:03:10.692Z,99766.80
2022-08-09T06:05:57.017Z,99767.00
2022-08-09T06:08:40.537Z,99772.60
2022-08-09T06:11:18.439Z,99771.80
2022-08-09T06:13:54.703Z,99774.00
2022-08-09T06:16:30.845Z,99773.80
2022-08-09T06:19:07.126Z,99771.20
2022-08-09T06:21:50.317Z,99771.60
2022-08-09T06:24:27.617Z,99772.00
2022-08-09T06:27:04.966Z,99774.00
2022-08-09T06:29:47.681Z,99772.60
2022-08-09T06:32:59.457Z,99771.20
2022-08-09T06:35:20.405Z,99771.60
2022-08-09T06:38:06.787Z,99774.80
2022-08-09T06:40:43.230Z,99770.40
2022-08-09T06:43:19.371Z,99771.00
2022-08-09T06:46:06.431Z,99767.80
2022-08-09T06:48:43.988Z,99770.60
2022-08-09T06:51:21.203Z,99774.40
2022-08-09T06:54:00.895Z,99772.00
2022-08-09T06:56:37.328Z,99777.00
2022-08-09T07:00:50.170Z,99778.60
2022-08-09T07:02:10.665Z,99779.80
2022-08-09T07:04:48.116Z,99786.80
2022-08-09T07:08:00.479Z,99789.80
2022-08-09T07:10:29.837Z,99788.40
2022-08-09T07:13:28.378Z,99795.00
2022-08-09T07:16:42.974Z,99796.40
2022-08-09T07:19:01.407Z,99792.80
2022-08-09T07:21:37.471Z,99792.80
2022-08-09T07:24:15.773Z,99792.60
2022-08-09T07:26:52.377Z,99800.60
2022-08-09T07:29:37.729Z,99797.00
2022-08-09T07:32:14.771Z,99795.00
2022-08-09T07:34:52.950Z,99798.60
2022-08-09T07:37:30.126Z,99800.60
2022-08-09T07:40:25.289Z,99803.20
2022-08-09T07:43:14.696Z,99803.20
2022-08-09T07:45:53.146Z,99807.00
2022-08-09T07:48:31.615Z,99801.80
2022-08-09T07:52:03.134Z,99812.00
2022-08-09T07:54:07.781Z,99819.00
2022-08-09T07:56:49.582Z,99816.40
2022-08-09T07:59:45.857Z,99817.20
2022-08-09T08:02:26.470Z,99818.40
2022-08-09T08:05:03.070Z,99811.80
2022-08-09T08:08:43.259Z,99813.20
2022-08-09T08:11:15.315Z,99826.60
2022-08-09T08:13:56.823Z,99814.60
2022-08-09T08:16:34.582Z,99817.60
2022-08-09T08:19:10.730Z,99818.40
2022-08-09T08:21:52.763Z,99821.00
2022-08-09T08:24:35.249Z,99811.80
2022-08-09T08:27:18.758Z,99825.20
2022-08-09T08:29:57.444Z,99820.00
2022-08-09T08:32:33.487Z,99816.00
2022-08-09T08:35:12.344Z,99819.60
2022-08-09T08:38:04.877Z,99823.00
2022-08-09T08:40:49.504Z,99823.60
2022-08-09T08:43:27.079Z,99819.40
2022-08-09T08:46:24.937Z,99826.40
2022-08-09T08:49:07.592Z,99824.80
2022-08-09T08:52:01.921Z,99822.20
2022-08-09T08:54:42.308Z,99828.80
2022-08-09T08:57:18.727Z,99821.80
2022-08-09T08:59:59.202Z,99825.40
2022-08-09T09:02:37.432Z,99826.80
2022-08-09T09:05:15.742Z,99828.00
2022-08-09T09:07:57.902Z,99826.40
2022-08-09T09:10:36.806Z,99823.00
2022-08-09T09:13:15.102Z,99819.80
2022-08-09T09:15:51.413Z,99812.80
2022-08-09T09:18:29.928Z,99815.00
2022-08-09T09:21:09.517Z,99825.20
2022-08-09T09:23:58.146Z,99824.00
2022-08-09T09:26:36.017Z,99828.00
2022-08-09T09:29:17.190Z,99828.40
2022-08-09T09:32:03.544Z,99818.80
2022-08-09T09:34:45.246Z,99820.60
2022-08-09T09:37:32.563Z,99821.40
2022-08-09T09:40:17.718Z,99821.40
2022-08-09T09:43:02.264Z,99810.20
2022-08-09T09:49:01.849Z,99816.80
2022-08-09T09:51:41.108Z,99816.40
2022-08-09T09:54:22.144Z,99811.40
2022-08-09T09:58:03.742Z,99814.60
2022-08-09T09:59:56.510Z,99821.20
2022-08-09T10:02:45.964Z,99820.80
2022-08-09T10:05:27.172Z,99812.00
2022-08-09T10:08:28.450Z,99817.80
2022-08-09T10:11:59.862Z,99820.60
2022-08-09T10:14:31.864Z,99810.40
2022-08-09T10:17:50.701Z,99807.40
2022-08-09T10:20:32.924Z,99809.00
2022-08-09T10:23:23.814Z,99809.40
2022-08-09T10:26:07.030Z,99808.00
2022-08-09T10:28:49.067Z,99808.60
2022-08-09T10:32:37.548Z,99798.80
2022-08-09T10:34:42.704Z,99802.80
2022-08-09T10:37:21.425Z,99800.20
2022-08-09T10:39:59.980Z,99804.00
2022-08-09T10:42:36.464Z,99799.20
2022-08-09T10:45:18.479Z,99796.20
2022-08-09T10:48:19.203Z,99795.00
2022-08-09T10:51:41.225Z,99799.40
2022-08-09T10:54:23.741Z,99804.60
2022-08-09T10:57:14.989Z,99794.40
2022-08-09T10:59:57.766Z,99795.20
2022-08-09T11:03:13.858Z,99791.80
2022-08-09T11:05:40.475Z,99790.00
2022-08-09T11:08:53.191Z,99790.00
2022-08-09T11:12:12.592Z,99782.60
2022-08-09T11:14:55.840Z,99790.20
2022-08-09T11:18:02.805Z,99783.20
2022-08-09T11:20:50.208Z,99777.00
2022-08-09T11:23:29.981Z,99786.40
2022-08-09T11:26:06.713Z,99784.60
2022-08-09T11:28:56.284Z,99777.80
2022-08-09T11:31:52.999Z,99777.60
2022-08-09T11:34:52.284Z,99776.00
2022-08-09T11:37:40.880Z,99775.60
2022-08-09T11:40:30.023Z,99766.80
2022-08-09T11:43:07.631Z,99767.40
2022-08-09T11:45:59.578Z,99769.60
2022-08-09T11:48:53.764Z,99761.00
2022-08-09T11:52:59.195Z,99761.80
2022-08-09T11:54:33.229Z,99760.20
2022-08-09T11:57:55.529Z,99760.00
2022-08-09T12:00:48.349Z,99764.60
2022-08-09T12:03:55.859Z,99768.20
2022-08-09T12:06:32.695Z,99767.20
2022-08-09T12:09:15.294Z,99770.80
2022-08-09T12:12:12.258Z,99771.80
2022-08-09T12:15:07.813Z,99767.40
2022-08-09T12:17:53.311Z,99762.00
2022-08-09T12:20:34.637Z,99760.80
2022-08-09T12:23:11.140Z,99753.60
2022-08-09T12:25:54.251Z,99747.60
2022-08-09T12:29:10.494Z,99750.40
2022-08-09T12:31:30.796Z,99754.60
2022-08-09T12:34:39.989Z,99743.20
2022-08-09T12:37:24.160Z,99747.20
2022-08-09T12:40:12.832Z,99744.80
2022-08-09T12:42:51.363Z,99745.80
2022-08-09T12:45:34.442Z,99750.80
2022-08-09T12:48:28.009Z,99741.60
2022-08-09T12:51:10.761Z,99740.60
2022-08-09T12:53:52.986Z,99739.00
2022-08-09T12:56:44.021Z,99740.00
2022-08-09T12:59:39.952Z,99732.80
2022-08-09T13:02:31.949Z,99726.80
2022-08-09T13:05:10.088Z,99731.00
2022-08-09T13:08:06.351Z,99733.40
2022-08-09T13:10:57.610Z,99736.80
2022-08-09T13:14:42.182Z,99733.80
2022-08-09T13:16:51.405Z,99729.00
2022-08-09T13:20:10.562Z,99725.80
2022-08-09T13:22:36.206Z,99726.40
2022-08-09T13:25:41.750Z,99719.60
2022-08-09T13:28:24.426Z,99723.60
2022-08-09T13:32:15.270Z,99716.00
2022-08-09T13:34:11.625Z,99728.60
2022-08-09T13:36:52.418Z,99726.20
2022-08-09T13:41:20.953Z,99724.20
2022-08-09T13:42:26.025Z,99718.00
2022-08-09T13:45:03.017Z,99724.60
2022-08-09T13:47:49.202Z,99717.20
2022-08-09T13:50:30.536Z,99713.20
2022-08-09T13:53:07.467Z,99716.40
2022-08-09T13:55:44.845Z,99713.80
2022-08-09T13:58:23.834Z,99713.00
2022-08-09T14:01:01.155Z,99730.20
2022-08-09T14:04:01.357Z,99720.20
2022-08-09T14:06:35.078Z,99726.80
2022-08-09T14:09:14.081Z,99725.00
2022-08-09T14:11:50.341Z,99728.80
2022-08-09T14:14:29.872Z,99728.20
2022-08-09T14:17:12.037Z,99725.80
2022-08-09T14:19:49.381Z,99724.00
2022-08-09T14:22:25.564Z,99716.60
2022-08-09T14:25:01.603Z,99720.40
2022-08-09T14:27:57.237Z,99723.40
2022-08-09T14:30:41.268Z,99730.60
2022-08-09T14:33:20.873Z,99738.20
2022-08-09T14:35:57.799Z,99731.60
2022-08-09T14:38:52.455Z,99733.20
2022-08-09T14:41:40.187Z,99736.20
2022-08-09T14:44:18.162Z,99736.80
2022-08-09T14:47:15.580Z,99732.80
2022-08-09T14:50:05.597Z,99733.80
2022-08-09T14:52:41.669Z,99736.00
2022-08-09T14:55:20.481Z,99734.80
2022-08-09T14:57:57.181Z,99732.00
2022-08-09T15:00:36.365Z,99731.80
2022-08-09T15:03:13.625Z,99732.40
2022-08-09T15:06:01.606Z,99726.60
2022-08-09T15:08:40.362Z,99728.80
2022-08-09T15:11:17.723Z,99730.60
2022-08-09T15:14:04.420Z,99728.60
2022-08-09T15:16:49.370Z,99725.00
2022-08-09T15:19:26.216Z,99726.20
2022-08-09T15:22:05.603Z,99724.20
2022-08-09T15:24:41.648Z,99723.60
2022-08-09T15:27:23.716Z,99731.40
2022-08-09T15:30:56.929Z,99731.40
2022-08-09T15:32:59.604Z,99734.60
2022-08-09T15:35:40.768Z,99739.20
2022-08-09T15:38:21.282Z,99736.80
2022-08-09T15:40:58.899Z,99734.60
2022-08-09T15:43:41.099Z,99742.20
2022-08-09T15:46:32.211Z,99738.40
2022-08-09T15:49:22.453Z,99744.60
2022-08-09T15:52:05.279Z,99738.00
2022-08-09T15:54:44.724Z,99737.60
2022-08-09T15:57:35.429Z,99736.60
2022-08-09T16:00:25.346Z,99736.80
2022-08-09T16:03:02.433Z,99734.20
2022-08-09T16:05:53.364Z,99733.20
2022-08-09T16:08:31.640Z,99731.40
2022-08-09T16:11:08.616Z,99737.20
2022-08-09T16:14:03.081Z,99732.00
2022-08-09T16:16:45.769Z,99729.40
2022-08-09T16:19:24.291Z,99727.20
2022-08-09T16:22:03.866Z,99731.00
2022-08-09T16:24:42.278Z,99733.60
2022-08-09T16:27:18.661Z,99737.60
2022-08-09T16:30:00.097Z,99736.00
2022-08-09T16:32:55.291Z,99739.20
2022-08-09T16:35:56.665Z,99734.60
2022-08-09T16:38:27.690Z,99736.80
2022-08-09T16:41:06.363Z,99732.00
2022-08-09T16:43:44.672Z,99737.80
2022-08-09T16:46:21.511Z,99731.80
2022-08-09T16:49:12.487Z,99735.40
2022-08-09T16:51:55.559Z,99737.80
2022-08-09T16:54:34.736Z,99733.40
2022-08-09T16:57:11.463Z,99732.60
2022-08-09T16:59:57.690Z,99733.60
2022-08-09T17:02:35.296Z,99733.40
2022-08-09T17:05:19.739Z,99736.20
2022-08-09T17:08:44.643Z,99733.60
2022-08-09T17:10:53.401Z,99739.40
2022-08-09T17:13:34.410Z,99736.40
2022-08-09T17:16:11.130Z,99737.60
2022-08-09T17:18:47.080Z,99740.00
2022-08-09T17:21:24.178Z,99744.60
2022-08-09T17:24:27.752Z,99747.00
2022-08-09T17:26:56.641Z,99752.60
2022-08-09T17:29:37.899Z,99752.00
2022-08-09T17:32:20.233Z,99755.40
2022-08-09T17:35:04.056Z,99756.80
2022-08-09T17:38:02.177Z,99760.20
2022-08-09T17:40:47.353Z,99758.20
2022-08-09T17:43:33.890Z,99755.80
2022-08-09T17:46:12.669Z,99757.80
2022-08-09T17:48:52.576Z,99763.80
2022-08-09T17:51:30.092Z,99763.80
2022-08-09T17:54:06.732Z,99766.20
2022-08-09T17:56:43.468Z,99767.40
2022-08-09T17:59:21.555Z,99772.40
2022-08-09T18:02:11.783Z,99774.40
2022-08-09T18:04:52.367Z,99780.40
2022-08-09T18:07:30.294Z,99781.00
2022-08-09T18:10:12.283Z,99787.40
2022-08-09T18:13:53.736Z,99788.80
2022-08-09T18:16:05.477Z,99789.80
2022-08-09T18:18:49.311Z,99794.60
2022-08-09T18:21:25.685Z,99798.40
2022-08-09T18:24:11.115Z,99802.60
2022-08-09T18:26:49.506Z,99804.60
2022-08-09T18:30:42.520Z,99805.80
2022-08-09T18:32:23.694Z,99812.00
2022-08-09T18:35:02.960Z,99813.00
2022-08-09T18:37:47.456Z,99818.60
2022-08-09T18:40:26.940Z,99821.20
2022-08-09T18:43:03.272Z,99826.60
2022-08-09T18:46:47.211Z,99830.40
2022-08-09T18:48:42.240Z,99827.80
2022-08-09T18:51:19.254Z,99828.00
2022-08-09T18:54:20.040Z,99828.60
2022-08-09T18:57:07.227Z,99829.60
2022-08-09T18:59:51.441Z,99825.40
2022-08-09T19:02:32.932Z,99829.20
2022-08-09T19:05:20.256Z,99830.00
2022-08-09T19:08:10.690Z,99829.40
2022-08-09T19:10:50.714Z,99827.20
2022-08-09T19:13:38.564Z,99827.80
2022-08-09T19:16:23.256Z,99829.80
2022-08-09T19:19:25.159Z,99836.40
2022-08-09T19:22:06.811Z,99832.40
2022-08-09T19:25:09.197Z,99835.40
2022-08-09T19:27:40.326Z,99834.80
2022-08-09T19:30:22.345Z,99835.40
2022-08-09T19:33:09.260Z,99831.60
2022-08-09T19:35:58.062Z,99833.60
2022-08-09T19:38:34.952Z,99836.20
2022-08-09T19:41:33.360Z,99832.80
2022-08-09T19:44:11.943Z,99831.00
2022-08-09T19:46:50.955Z,99831.40
2022-08-09T19:50:07.253Z,99835.80
2022-08-09T19:52:27.053Z,99833.60
2022-08-09T19:55:03.866Z,99832.40
2022-08-09T19:57:40.210Z,99829.40
2022-08-09T20:00:21.771Z,99831.40
2022-08-09T20:04:17.798Z,99831.40
2022-08-09T20:05:54.022Z,99826.80
2022-08-09T20:08:34.975Z,99829.60
2022-08-09T20:11:11.932Z,99831.60
2022-08-09T20:13:54.375Z,99831.60
2022-08-09T20:16:32.806Z,99831.20
2022-08-09T20:19:48.835Z,99833.60
2022-08-09T20:22:10.135Z,99833.40
2022-08-09T20:24:53.500Z,99834.60
2022-08-09T20:27:30.795Z,99833.00
2022-08-09T20:30:12.394Z,99834.40
2022-08-09T20:32:52.529Z,99834.40
2022-08-09T20:35:29.204Z,99834.40
2022-08-09T20:38:21.539Z,99835.00
2022-08-09T20:41:03.012Z,99834.20
2022-08-09T20:43:44.928Z,99839.20
2022-08-09T20:46:42.144Z,99842.60
2022-08-09T20:49:17.686Z,99845.60
2022-08-09T20:51:53.672Z,99844.80
2022-08-09T20:54:30.713Z,99843.40
2022-08-09T20:57:07.034Z,99846.20
2022-08-09T21:00:30.924Z,99841.60
2022-08-09T21:02:40.206Z,99842.00
2022-08-09T21:05:56.425Z,99840.20
2022-08-09T21:08:14.960Z,99840.20
2022-08-09T21:10:53.483Z,99841.80
2022-08-09T21:13:29.948Z,99838.00
2022-08-09T21:16:30.476Z,99838.40
2022-08-09T21:20:05.077Z,99839.80
2022-08-09T21:22:03.915Z,99839.20
2022-08-09T21:25:17.514Z,99841.20
2022-08-09T21:27:57.954Z,99839.40
2022-08-09T21:30:34.093Z,99841.60
2022-08-09T21:33:16.020Z,99841.40
2022-08-09T21:35:54.237Z,99841.40
2022-08-09T21:38:35.408Z,99839.00
2022-08-09T21:41:16.944Z,99840.60
2022-08-09T21:43:57.552Z,99846.80
2022-08-09T21:46:34.282Z,99841.40
2022-08-09T21:49:12.277Z,99843.40
2022-08-09T21:51:49.285Z,99845.00
2022-08-09T21:54:27.392Z,99846.20
2022-08-09T21:57:03.619Z,99841.80
2022-08-09T21:59:43.604Z,99843.00
2022-08-09T22:02:36.236Z,99843.60
2022-08-09T22:05:22.287Z,99844.40
2022-08-09T22:07:59.329Z,99841.00
2022-08-09T22:10:36.789Z,99836.40
2022-08-09T22:13:34.653Z,99841.80
2022-08-09T22:16:13.416Z,99838.00
2022-08-09T22:18:54.942Z,99841.60
2022-08-09T22:21:49.865Z,99839.60
2022-08-09T22:24:26.604Z,99839.20
2022-08-09T22:27:04.919Z,99834.60
2022-08-09T22:29:48.437Z,99835.00
2022-08-09T22:32:29.881Z,99833.60
2022-08-09T22:36:01.533Z,99829.00
2022-08-09T22:38:09.790Z,99829.40
2022-08-09T22:40:49.266Z,99826.60
2022-08-09T22:44:03.303Z,99824.80
2022-08-09T22:48:12.974Z,99823.20
2022-08-09T22:49:26.108Z,99825.20
2022-08-09T22:52:05.920Z,99826.40
2022-08-09T22:54:46.732Z,99831.40
2022-08-09T22:57:23.160Z,99828.60
2022-08-09T23:00:16.537Z,99829.60
2022-08-09T23:02:55.317Z,99833.00
2022-08-09T23:05:31.390Z,99831.40
2022-08-09T23:08:29.770Z,99829.60
2022-08-09T23:11:06.488Z,99830.40
2022-08-09T23:13:42.680Z,99833.00
2022-08-09T23:16:22.882Z,99828.00
2022-08-09T23:18:59.129Z,99828.00
2022-08-09T23:21:36.357Z,99835.00
2022-08-09T23:24:15.401Z,99830.20
2022-08-09T23:26:51.486Z,99828.00
2022-08-09T23:29:27.691Z,99827.40
2022-08-09T23:32:09.573Z,99829.00
2022-08-09T23:34:45.946Z,99830.60
2022-08-09T23:37:22.889Z,99832.20
2022-08-09T23:40:01.838Z,99830.20
2022-08-09T23:42:37.924Z,99833.00
2022-08-09T23:45:36.422Z,99829.40
2022-08-09T23:48:13.708Z,99830.00
2022-08-09T23:50:49.986Z,99828.80
2022-08-09T23:53:27.629Z,99823.60
2022-08-09T23:56:10.491Z,99823.60
2022-08-09T23:58:46.489Z,99824.00
